TAF KMTW
AMD KMTW 280921Z 2809/2906 27008KT P6SM SCT025 BKN040 FM281000 29013G21KT P6SM BKN040 FM281400 31018G27KT P6SM SCT040 FM282300 31008KT P6SM SKC=
METAR KMTW
WC KMTW
WS KMTW
WV KMTW